sensor_id;sensor_type;location;lat;lon;timestamp;P1;durP1;ratioP1;P2;durP2;ratioP2
3847;SDS011;1939;48.720;9.166;2023-08-06T00:00:16;21.13;;;14.60;;
3847;SDS011;1939;48.720;9.166;2023-08-06T00:02:41;23.83;;;15.20;;
3847;SDS011;1939;48.720;9.166;2023-08-06T00:05:07;26.67;;;17.80;;
3847;SDS011;1939;48.720;9.166;2023-08-06T00:07:32;23.50;;;16.20;;
3847;SDS011;1939;48.720;9.166;2023-08-06T00:09:57;28.70;;;15.87;;
3847;SDS011;1939;48.720;9.166;2023-08-06T00:12:22;20.20;;;13.80;;
3847;SDS011;1939;48.720;9.166;2023-08-06T00:14:51;20.20;;;14.00;;
3847;SDS011;1939;48.720;9.166;2023-08-06T00:17:16;23.60;;;14.73;;
3847;SDS011;1939;48.720;9.166;2023-08-06T00:19:42;27.53;;;15.30;;
3847;SDS011;1939;48.720;9.166;2023-08-06T00:22:07;23.03;;;14.40;;
3847;SDS011;1939;48.720;9.166;2023-08-06T00:24:32;19.63;;;14.30;;
3847;SDS011;1939;48.720;9.166;2023-08-06T00:26:58;18.80;;;12.67;;
3847;SDS011;1939;48.720;9.166;2023-08-06T00:29:23;16.23;;;12.37;;
3847;SDS011;1939;48.720;9.166;2023-08-06T00:31:48;15.60;;;11.77;;
3847;SDS011;1939;48.720;9.166;2023-08-06T00:34:13;17.83;;;11.70;;
3847;SDS011;1939;48.720;9.166;2023-08-06T00:36:39;19.90;;;11.03;;
3847;SDS011;1939;48.720;9.166;2023-08-06T00:39:04;15.20;;;9.53;;
3847;SDS011;1939;48.720;9.166;2023-08-06T00:41:29;14.30;;;9.70;;
3847;SDS011;1939;48.720;9.166;2023-08-06T00:43:54;9.80;;;7.30;;
3847;SDS011;1939;48.720;9.166;2023-08-06T00:46:20;15.53;;;9.10;;
3847;SDS011;1939;48.720;9.166;2023-08-06T00:48:45;9.27;;;6.20;;
3847;SDS011;1939;48.720;9.166;2023-08-06T00:51:11;8.87;;;6.93;;
3847;SDS011;1939;48.720;9.166;2023-08-06T00:53:39;8.80;;;7.00;;
3847;SDS011;1939;48.720;9.166;2023-08-06T00:56:05;8.20;;;6.30;;
3847;SDS011;1939;48.720;9.166;2023-08-06T00:58:30;8.47;;;7.00;;
3847;SDS011;1939;48.720;9.166;2023-08-06T01:00:56;7.20;;;5.03;;
3847;SDS011;1939;48.720;9.166;2023-08-06T01:03:21;10.53;;;5.47;;
3847;SDS011;1939;48.720;9.166;2023-08-06T01:05:46;9.33;;;5.90;;
3847;SDS011;1939;48.720;9.166;2023-08-06T01:08:17;7.33;;;5.23;;
3847;SDS011;1939;48.720;9.166;2023-08-06T01:11:02;7.23;;;6.40;;
3847;SDS011;1939;48.720;9.166;2023-08-06T01:13:32;11.30;;;6.17;;
3847;SDS011;1939;48.720;9.166;2023-08-06T01:15:58;9.03;;;6.87;;
3847;SDS011;1939;48.720;9.166;2023-08-06T01:18:24;7.07;;;5.80;;
3847;SDS011;1939;48.720;9.166;2023-08-06T01:20:50;8.60;;;6.17;;
3847;SDS011;1939;48.720;9.166;2023-08-06T01:23:15;7.90;;;5.57;;
3847;SDS011;1939;48.720;9.166;2023-08-06T01:25:43;9.07;;;6.30;;
3847;SDS011;1939;48.720;9.166;2023-08-06T01:28:15;7.43;;;5.50;;
3847;SDS011;1939;48.720;9.166;2023-08-06T01:30:43;8.90;;;5.77;;
3847;SDS011;1939;48.720;9.166;2023-08-06T01:33:09;8.23;;;5.47;;
3847;SDS011;1939;48.720;9.166;2023-08-06T01:38:39;7.60;;;6.03;;
3847;SDS011;1939;48.720;9.166;2023-08-06T01:41:05;6.87;;;5.50;;
3847;SDS011;1939;48.720;9.166;2023-08-06T01:43:30;8.00;;;6.17;;
3847;SDS011;1939;48.720;9.166;2023-08-06T01:45:55;6.60;;;5.17;;
3847;SDS011;1939;48.720;9.166;2023-08-06T01:48:20;7.20;;;5.63;;
3847;SDS011;1939;48.720;9.166;2023-08-06T01:50:45;9.10;;;5.47;;
3847;SDS011;1939;48.720;9.166;2023-08-06T01:53:11;7.40;;;5.50;;
3847;SDS011;1939;48.720;9.166;2023-08-06T01:55:36;9.67;;;5.50;;
3847;SDS011;1939;48.720;9.166;2023-08-06T01:58:01;7.17;;;5.43;;
3847;SDS011;1939;48.720;9.166;2023-08-06T02:00:26;9.90;;;5.80;;
3847;SDS011;1939;48.720;9.166;2023-08-06T02:02:53;7.87;;;5.40;;
3847;SDS011;1939;48.720;9.166;2023-08-06T02:05:19;7.63;;;5.60;;
3847;SDS011;1939;48.720;9.166;2023-08-06T02:07:44;7.70;;;5.53;;
3847;SDS011;1939;48.720;9.166;2023-08-06T02:10:09;5.53;;;4.93;;
3847;SDS011;1939;48.720;9.166;2023-08-06T02:12:34;5.30;;;4.40;;
3847;SDS011;1939;48.720;9.166;2023-08-06T02:14:59;9.93;;;5.93;;
3847;SDS011;1939;48.720;9.166;2023-08-06T02:17:25;6.90;;;5.27;;
3847;SDS011;1939;48.720;9.166;2023-08-06T02:19:50;9.40;;;6.13;;
3847;SDS011;1939;48.720;9.166;2023-08-06T02:22:15;8.13;;;6.10;;
3847;SDS011;1939;48.720;9.166;2023-08-06T02:24:40;7.93;;;5.53;;
3847;SDS011;1939;48.720;9.166;2023-08-06T02:27:06;7.67;;;5.50;;
3847;SDS011;1939;48.720;9.166;2023-08-06T02:29:31;7.17;;;5.07;;
3847;SDS011;1939;48.720;9.166;2023-08-06T02:31:56;8.47;;;4.73;;
3847;SDS011;1939;48.720;9.166;2023-08-06T02:34:22;14.53;;;4.93;;
3847;SDS011;1939;48.720;9.166;2023-08-06T02:36:47;6.73;;;4.93;;
3847;SDS011;1939;48.720;9.166;2023-08-06T02:39:12;7.67;;;5.17;;
3847;SDS011;1939;48.720;9.166;2023-08-06T02:41:37;8.67;;;4.20;;
3847;SDS011;1939;48.720;9.166;2023-08-06T02:44:02;9.00;;;4.93;;
3847;SDS011;1939;48.720;9.166;2023-08-06T02:46:28;4.87;;;3.90;;
3847;SDS011;1939;48.720;9.166;2023-08-06T02:48:53;5.60;;;3.67;;
3847;SDS011;1939;48.720;9.166;2023-08-06T02:51:18;4.60;;;3.97;;
3847;SDS011;1939;48.720;9.166;2023-08-06T02:53:43;4.17;;;3.47;;
3847;SDS011;1939;48.720;9.166;2023-08-06T02:56:09;5.33;;;3.93;;
3847;SDS011;1939;48.720;9.166;2023-08-06T02:58:34;4.80;;;4.17;;
3847;SDS011;1939;48.720;9.166;2023-08-06T03:01:00;5.30;;;4.20;;
3847;SDS011;1939;48.720;9.166;2023-08-06T03:03:26;7.83;;;3.00;;
3847;SDS011;1939;48.720;9.166;2023-08-06T03:05:52;7.70;;;4.23;;
3847;SDS011;1939;48.720;9.166;2023-08-06T03:08:18;4.73;;;3.70;;
3847;SDS011;1939;48.720;9.166;2023-08-06T03:10:47;7.10;;;4.40;;
3847;SDS011;1939;48.720;9.166;2023-08-06T03:13:12;6.93;;;3.77;;
3847;SDS011;1939;48.720;9.166;2023-08-06T03:15:37;4.47;;;3.40;;
3847;SDS011;1939;48.720;9.166;2023-08-06T03:18:02;7.43;;;3.87;;
3847;SDS011;1939;48.720;9.166;2023-08-06T03:20:28;6.57;;;3.57;;
3847;SDS011;1939;48.720;9.166;2023-08-06T03:22:53;4.77;;;4.00;;
3847;SDS011;1939;48.720;9.166;2023-08-06T03:25:18;8.43;;;4.73;;
3847;SDS011;1939;48.720;9.166;2023-08-06T03:27:43;5.17;;;3.73;;
3847;SDS011;1939;48.720;9.166;2023-08-06T03:30:09;6.73;;;3.70;;
3847;SDS011;1939;48.720;9.166;2023-08-06T03:32:34;9.43;;;4.03;;
3847;SDS011;1939;48.720;9.166;2023-08-06T03:34:59;4.47;;;3.10;;
3847;SDS011;1939;48.720;9.166;2023-08-06T03:37:24;6.33;;;2.70;;
3847;SDS011;1939;48.720;9.166;2023-08-06T03:39:50;4.57;;;2.90;;
3847;SDS011;1939;48.720;9.166;2023-08-06T03:42:15;6.27;;;3.30;;
3847;SDS011;1939;48.720;9.166;2023-08-06T03:44:40;5.20;;;3.63;;
3847;SDS011;1939;48.720;9.166;2023-08-06T03:47:05;5.20;;;3.47;;
3847;SDS011;1939;48.720;9.166;2023-08-06T03:49:31;9.57;;;3.10;;
3847;SDS011;1939;48.720;9.166;2023-08-06T03:51:56;8.00;;;3.60;;
3847;SDS011;1939;48.720;9.166;2023-08-06T03:54:21;3.73;;;3.00;;
3847;SDS011;1939;48.720;9.166;2023-08-06T03:56:46;4.80;;;2.80;;
3847;SDS011;1939;48.720;9.166;2023-08-06T03:59:12;5.80;;;3.23;;
3847;SDS011;1939;48.720;9.166;2023-08-06T04:01:37;7.97;;;3.20;;
3847;SDS011;1939;48.720;9.166;2023-08-06T04:04:02;7.00;;;2.60;;
3847;SDS011;1939;48.720;9.166;2023-08-06T04:06:27;7.70;;;2.70;;
3847;SDS011;1939;48.720;9.166;2023-08-06T04:08:52;4.20;;;2.70;;
3847;SDS011;1939;48.720;9.166;2023-08-06T04:11:18;6.93;;;3.07;;
3847;SDS011;1939;48.720;9.166;2023-08-06T04:13:43;4.73;;;3.10;;
3847;SDS011;1939;48.720;9.166;2023-08-06T04:16:09;10.17;;;2.83;;
3847;SDS011;1939;48.720;9.166;2023-08-06T04:18:34;4.87;;;2.67;;
3847;SDS011;1939;48.720;9.166;2023-08-06T04:20:59;5.97;;;3.10;;
3847;SDS011;1939;48.720;9.166;2023-08-06T04:23:26;4.87;;;2.90;;
3847;SDS011;1939;48.720;9.166;2023-08-06T04:25:51;5.70;;;2.57;;
3847;SDS011;1939;48.720;9.166;2023-08-06T04:28:16;6.43;;;2.77;;
3847;SDS011;1939;48.720;9.166;2023-08-06T04:30:42;6.00;;;2.87;;
3847;SDS011;1939;48.720;9.166;2023-08-06T04:33:07;8.30;;;3.20;;
3847;SDS011;1939;48.720;9.166;2023-08-06T04:35:32;12.50;;;5.03;;
3847;SDS011;1939;48.720;9.166;2023-08-06T04:37:57;6.00;;;2.20;;
3847;SDS011;1939;48.720;9.166;2023-08-06T04:40:22;4.83;;;2.90;;
3847;SDS011;1939;48.720;9.166;2023-08-06T04:42:48;3.10;;;2.03;;
3847;SDS011;1939;48.720;9.166;2023-08-06T04:45:13;5.30;;;2.27;;
3847;SDS011;1939;48.720;9.166;2023-08-06T04:47:38;4.10;;;2.00;;
3847;SDS011;1939;48.720;9.166;2023-08-06T04:50:03;2.63;;;1.90;;
3847;SDS011;1939;48.720;9.166;2023-08-06T04:52:29;4.37;;;2.57;;
3847;SDS011;1939;48.720;9.166;2023-08-06T04:54:54;4.53;;;2.20;;
3847;SDS011;1939;48.720;9.166;2023-08-06T04:57:20;5.20;;;1.70;;
3847;SDS011;1939;48.720;9.166;2023-08-06T04:59:45;4.87;;;2.40;;
3847;SDS011;1939;48.720;9.166;2023-08-06T05:02:10;11.87;;;2.80;;
3847;SDS011;1939;48.720;9.166;2023-08-06T05:04:36;5.40;;;2.17;;
3847;SDS011;1939;48.720;9.166;2023-08-06T05:07:01;1.90;;;1.70;;
3847;SDS011;1939;48.720;9.166;2023-08-06T05:09:26;3.70;;;2.43;;
3847;SDS011;1939;48.720;9.166;2023-08-06T05:11:51;14.00;;;2.27;;
3847;SDS011;1939;48.720;9.166;2023-08-06T05:14:17;6.30;;;2.27;;
3847;SDS011;1939;48.720;9.166;2023-08-06T05:16:42;4.90;;;2.37;;
3847;SDS011;1939;48.720;9.166;2023-08-06T05:19:07;3.20;;;1.63;;
3847;SDS011;1939;48.720;9.166;2023-08-06T05:21:32;1.67;;;1.17;;
3847;SDS011;1939;48.720;9.166;2023-08-06T05:23:57;2.67;;;1.33;;
3847;SDS011;1939;48.720;9.166;2023-08-06T05:26:23;3.60;;;1.63;;
3847;SDS011;1939;48.720;9.166;2023-08-06T05:28:48;3.50;;;1.60;;
3847;SDS011;1939;48.720;9.166;2023-08-06T05:31:13;2.27;;;1.53;;
3847;SDS011;1939;48.720;9.166;2023-08-06T05:33:38;1.93;;;1.20;;
3847;SDS011;1939;48.720;9.166;2023-08-06T05:36:04;1.27;;;1.10;;
3847;SDS011;1939;48.720;9.166;2023-08-06T05:38:29;3.93;;;1.10;;
3847;SDS011;1939;48.720;9.166;2023-08-06T05:40:54;1.80;;;0.93;;
3847;SDS011;1939;48.720;9.166;2023-08-06T05:43:20;2.90;;;1.70;;
3847;SDS011;1939;48.720;9.166;2023-08-06T05:45:45;5.10;;;1.40;;
3847;SDS011;1939;48.720;9.166;2023-08-06T05:48:11;2.67;;;1.03;;
3847;SDS011;1939;48.720;9.166;2023-08-06T05:50:36;2.93;;;1.27;;
3847;SDS011;1939;48.720;9.166;2023-08-06T05:53:02;4.60;;;0.97;;
3847;SDS011;1939;48.720;9.166;2023-08-06T05:55:27;1.60;;;1.10;;
3847;SDS011;1939;48.720;9.166;2023-08-06T05:57:52;3.47;;;1.20;;
3847;SDS011;1939;48.720;9.166;2023-08-06T06:00:17;2.90;;;1.03;;
3847;SDS011;1939;48.720;9.166;2023-08-06T06:02:43;4.57;;;1.20;;
3847;SDS011;1939;48.720;9.166;2023-08-06T06:05:08;2.67;;;0.90;;
3847;SDS011;1939;48.720;9.166;2023-08-06T06:07:34;9.57;;;1.90;;
3847;SDS011;1939;48.720;9.166;2023-08-06T06:09:59;2.70;;;0.97;;
3847;SDS011;1939;48.720;9.166;2023-08-06T06:12:24;1.10;;;0.67;;
3847;SDS011;1939;48.720;9.166;2023-08-06T06:14:51;2.17;;;1.37;;
3847;SDS011;1939;48.720;9.166;2023-08-06T06:17:16;4.33;;;1.00;;
3847;SDS011;1939;48.720;9.166;2023-08-06T06:19:41;2.83;;;0.83;;
3847;SDS011;1939;48.720;9.166;2023-08-06T06:22:06;2.10;;;0.90;;
3847;SDS011;1939;48.720;9.166;2023-08-06T06:24:32;2.40;;;0.90;;
3847;SDS011;1939;48.720;9.166;2023-08-06T06:26:57;1.43;;;0.90;;
3847;SDS011;1939;48.720;9.166;2023-08-06T06:29:22;2.83;;;0.77;;
3847;SDS011;1939;48.720;9.166;2023-08-06T06:31:47;3.37;;;1.40;;
3847;SDS011;1939;48.720;9.166;2023-08-06T06:34:13;2.30;;;1.20;;
3847;SDS011;1939;48.720;9.166;2023-08-06T06:36:38;1.57;;;0.73;;
3847;SDS011;1939;48.720;9.166;2023-08-06T06:39:03;4.60;;;0.90;;
3847;SDS011;1939;48.720;9.166;2023-08-06T06:41:28;2.43;;;1.27;;
3847;SDS011;1939;48.720;9.166;2023-08-06T06:43:56;3.13;;;1.50;;
3847;SDS011;1939;48.720;9.166;2023-08-06T06:46:21;2.57;;;1.20;;
3847;SDS011;1939;48.720;9.166;2023-08-06T06:48:47;1.50;;;1.10;;
3847;SDS011;1939;48.720;9.166;2023-08-06T06:51:12;2.67;;;0.90;;
3847;SDS011;1939;48.720;9.166;2023-08-06T06:53:37;5.00;;;1.90;;
3847;SDS011;1939;48.720;9.166;2023-08-06T06:56:03;1.37;;;0.83;;
3847;SDS011;1939;48.720;9.166;2023-08-06T06:58:28;2.30;;;0.77;;
3847;SDS011;1939;48.720;9.166;2023-08-06T07:00:54;1.80;;;1.07;;
3847;SDS011;1939;48.720;9.166;2023-08-06T07:03:22;3.00;;;0.70;;
3847;SDS011;1939;48.720;9.166;2023-08-06T07:05:47;1.77;;;0.87;;
3847;SDS011;1939;48.720;9.166;2023-08-06T07:08:12;2.30;;;1.23;;
3847;SDS011;1939;48.720;9.166;2023-08-06T07:10:38;4.00;;;1.10;;
3847;SDS011;1939;48.720;9.166;2023-08-06T07:13:03;1.33;;;0.83;;
3847;SDS011;1939;48.720;9.166;2023-08-06T07:15:28;3.77;;;1.13;;
3847;SDS011;1939;48.720;9.166;2023-08-06T07:17:54;2.77;;;1.00;;
3847;SDS011;1939;48.720;9.166;2023-08-06T07:20:19;3.20;;;1.00;;
3847;SDS011;1939;48.720;9.166;2023-08-06T07:22:45;1.20;;;0.67;;
3847;SDS011;1939;48.720;9.166;2023-08-06T07:25:10;1.60;;;0.73;;
3847;SDS011;1939;48.720;9.166;2023-08-06T07:27:35;1.97;;;0.80;;
3847;SDS011;1939;48.720;9.166;2023-08-06T07:30:00;2.40;;;0.90;;
3847;SDS011;1939;48.720;9.166;2023-08-06T07:32:26;1.50;;;0.63;;
3847;SDS011;1939;48.720;9.166;2023-08-06T07:34:52;1.60;;;0.80;;
3847;SDS011;1939;48.720;9.166;2023-08-06T07:37:22;10.27;;;0.67;;
3847;SDS011;1939;48.720;9.166;2023-08-06T07:39:47;3.27;;;0.63;;
3847;SDS011;1939;48.720;9.166;2023-08-06T07:42:12;3.50;;;0.40;;
3847;SDS011;1939;48.720;9.166;2023-08-06T07:44:37;3.90;;;0.33;;
3847;SDS011;1939;48.720;9.166;2023-08-06T07:47:03;1.00;;;0.53;;
3847;SDS011;1939;48.720;9.166;2023-08-06T07:49:28;0.70;;;0.40;;
3847;SDS011;1939;48.720;9.166;2023-08-06T07:51:53;7.33;;;2.30;;
3847;SDS011;1939;48.720;9.166;2023-08-06T07:54:18;2.50;;;0.50;;
3847;SDS011;1939;48.720;9.166;2023-08-06T07:56:43;1.10;;;0.40;;
3847;SDS011;1939;48.720;9.166;2023-08-06T07:59:09;0.83;;;0.27;;
3847;SDS011;1939;48.720;9.166;2023-08-06T08:01:34;1.67;;;0.43;;
3847;SDS011;1939;48.720;9.166;2023-08-06T08:03:59;0.70;;;0.40;;
3847;SDS011;1939;48.720;9.166;2023-08-06T08:06:25;1.73;;;0.30;;
3847;SDS011;1939;48.720;9.166;2023-08-06T08:08:50;0.60;;;0.30;;
3847;SDS011;1939;48.720;9.166;2023-08-06T08:11:16;0.73;;;0.30;;
3847;SDS011;1939;48.720;9.166;2023-08-06T08:13:42;3.17;;;0.23;;
3847;SDS011;1939;48.720;9.166;2023-08-06T08:16:08;1.03;;;0.40;;
3847;SDS011;1939;48.720;9.166;2023-08-06T08:18:33;0.70;;;0.30;;
3847;SDS011;1939;48.720;9.166;2023-08-06T08:20:58;0.90;;;0.30;;
3847;SDS011;1939;48.720;9.166;2023-08-06T08:23:23;0.60;;;0.30;;
3847;SDS011;1939;48.720;9.166;2023-08-06T08:25:48;1.63;;;0.33;;
3847;SDS011;1939;48.720;9.166;2023-08-06T08:28:14;0.83;;;0.60;;
3847;SDS011;1939;48.720;9.166;2023-08-06T08:30:40;0.60;;;0.30;;
3847;SDS011;1939;48.720;9.166;2023-08-06T08:33:05;0.83;;;0.40;;
3847;SDS011;1939;48.720;9.166;2023-08-06T08:35:31;0.90;;;0.50;;
3847;SDS011;1939;48.720;9.166;2023-08-06T08:37:56;0.50;;;0.20;;
3847;SDS011;1939;48.720;9.166;2023-08-06T08:40:21;0.50;;;0.30;;
3847;SDS011;1939;48.720;9.166;2023-08-06T08:42:48;0.70;;;0.30;;
3847;SDS011;1939;48.720;9.166;2023-08-06T08:45:14;0.60;;;0.23;;
3847;SDS011;1939;48.720;9.166;2023-08-06T08:47:40;1.93;;;0.20;;
3847;SDS011;1939;48.720;9.166;2023-08-06T08:50:05;0.70;;;0.20;;
3847;SDS011;1939;48.720;9.166;2023-08-06T08:52:31;0.70;;;0.40;;
3847;SDS011;1939;48.720;9.166;2023-08-06T08:54:57;0.80;;;0.20;;
3847;SDS011;1939;48.720;9.166;2023-08-06T08:57:23;0.77;;;0.40;;
3847;SDS011;1939;48.720;9.166;2023-08-06T08:59:48;1.80;;;0.23;;
3847;SDS011;1939;48.720;9.166;2023-08-06T09:02:13;0.80;;;0.40;;
3847;SDS011;1939;48.720;9.166;2023-08-06T09:04:40;0.80;;;0.30;;
3847;SDS011;1939;48.720;9.166;2023-08-06T09:07:05;0.60;;;0.37;;
3847;SDS011;1939;48.720;9.166;2023-08-06T09:09:33;0.60;;;0.20;;
3847;SDS011;1939;48.720;9.166;2023-08-06T09:12:02;0.73;;;0.40;;
3847;SDS011;1939;48.720;9.166;2023-08-06T09:14:30;0.67;;;0.30;;
3847;SDS011;1939;48.720;9.166;2023-08-06T09:16:56;1.17;;;0.43;;
3847;SDS011;1939;48.720;9.166;2023-08-06T09:19:22;0.50;;;0.20;;
3847;SDS011;1939;48.720;9.166;2023-08-06T09:21:47;0.80;;;0.33;;
3847;SDS011;1939;48.720;9.166;2023-08-06T09:24:15;0.60;;;0.30;;
3847;SDS011;1939;48.720;9.166;2023-08-06T09:26:41;0.60;;;0.30;;
3847;SDS011;1939;48.720;9.166;2023-08-06T09:29:07;0.80;;;0.30;;
3847;SDS011;1939;48.720;9.166;2023-08-06T09:31:33;1.80;;;0.20;;
3847;SDS011;1939;48.720;9.166;2023-08-06T09:33:59;0.80;;;0.57;;
3847;SDS011;1939;48.720;9.166;2023-08-06T09:36:24;0.60;;;0.30;;
3847;SDS011;1939;48.720;9.166;2023-08-06T09:38:50;0.67;;;0.20;;
3847;SDS011;1939;48.720;9.166;2023-08-06T09:41:25;0.93;;;0.57;;
3847;SDS011;1939;48.720;9.166;2023-08-06T09:43:51;0.50;;;0.20;;
3847;SDS011;1939;48.720;9.166;2023-08-06T09:46:16;1.90;;;0.30;;
3847;SDS011;1939;48.720;9.166;2023-08-06T09:48:45;1.37;;;0.30;;
3847;SDS011;1939;48.720;9.166;2023-08-06T09:51:11;0.57;;;0.20;;
3847;SDS011;1939;48.720;9.166;2023-08-06T09:53:38;0.70;;;0.50;;
3847;SDS011;1939;48.720;9.166;2023-08-06T09:56:04;0.70;;;0.37;;
3847;SDS011;1939;48.720;9.166;2023-08-06T09:58:30;0.60;;;0.30;;
3847;SDS011;1939;48.720;9.166;2023-08-06T10:00:56;0.70;;;0.30;;
3847;SDS011;1939;48.720;9.166;2023-08-06T10:03:21;1.10;;;0.30;;
3847;SDS011;1939;48.720;9.166;2023-08-06T10:05:47;0.60;;;0.30;;
3847;SDS011;1939;48.720;9.166;2023-08-06T10:08:13;1.17;;;0.60;;
3847;SDS011;1939;48.720;9.166;2023-08-06T10:10:38;1.47;;;0.40;;
3847;SDS011;1939;48.720;9.166;2023-08-06T10:13:03;0.70;;;0.40;;
3847;SDS011;1939;48.720;9.166;2023-08-06T10:15:31;0.60;;;0.20;;
3847;SDS011;1939;48.720;9.166;2023-08-06T10:17:56;1.60;;;0.27;;
3847;SDS011;1939;48.720;9.166;2023-08-06T10:20:22;1.30;;;0.60;;
3847;SDS011;1939;48.720;9.166;2023-08-06T10:23:03;1.20;;;0.33;;
3847;SDS011;1939;48.720;9.166;2023-08-06T10:25:35;0.80;;;0.23;;
3847;SDS011;1939;48.720;9.166;2023-08-06T10:28:10;0.60;;;0.30;;
3847;SDS011;1939;48.720;9.166;2023-08-06T10:30:41;0.90;;;0.40;;
3847;SDS011;1939;48.720;9.166;2023-08-06T10:33:07;0.60;;;0.23;;
3847;SDS011;1939;48.720;9.166;2023-08-06T10:38:11;0.90;;;0.40;;
3847;SDS011;1939;48.720;9.166;2023-08-06T10:40:37;1.70;;;0.20;;
3847;SDS011;1939;48.720;9.166;2023-08-06T10:43:04;0.80;;;0.33;;
3847;SDS011;1939;48.720;9.166;2023-08-06T10:45:33;1.93;;;0.33;;
3847;SDS011;1939;48.720;9.166;2023-08-06T10:47:59;1.20;;;0.50;;
3847;SDS011;1939;48.720;9.166;2023-08-06T10:50:24;0.70;;;0.30;;
3847;SDS011;1939;48.720;9.166;2023-08-06T10:52:50;5.73;;;0.70;;
3847;SDS011;1939;48.720;9.166;2023-08-06T10:55:28;0.60;;;0.30;;
3847;SDS011;1939;48.720;9.166;2023-08-06T10:57:54;0.60;;;0.30;;
3847;SDS011;1939;48.720;9.166;2023-08-06T11:00:20;0.60;;;0.30;;
3847;SDS011;1939;48.720;9.166;2023-08-06T11:02:46;1.07;;;0.53;;
3847;SDS011;1939;48.720;9.166;2023-08-06T11:05:11;1.07;;;0.30;;
3847;SDS011;1939;48.720;9.166;2023-08-06T11:07:37;0.63;;;0.33;;
3847;SDS011;1939;48.720;9.166;2023-08-06T11:10:10;0.70;;;0.20;;
3847;SDS011;1939;48.720;9.166;2023-08-06T11:12:35;0.80;;;0.40;;
3847;SDS011;1939;48.720;9.166;2023-08-06T11:15:01;1.33;;;0.30;;
3847;SDS011;1939;48.720;9.166;2023-08-06T11:17:27;0.90;;;0.37;;
3847;SDS011;1939;48.720;9.166;2023-08-06T11:19:52;0.60;;;0.23;;
3847;SDS011;1939;48.720;9.166;2023-08-06T11:22:19;3.70;;;0.47;;
3847;SDS011;1939;48.720;9.166;2023-08-06T11:24:45;2.10;;;0.87;;
3847;SDS011;1939;48.720;9.166;2023-08-06T11:27:13;1.27;;;0.73;;
3847;SDS011;1939;48.720;9.166;2023-08-06T11:29:40;6.70;;;0.53;;
3847;SDS011;1939;48.720;9.166;2023-08-06T11:35:11;2.40;;;2.20;;
3847;SDS011;1939;48.720;9.166;2023-08-06T11:37:36;1.37;;;0.47;;
3847;SDS011;1939;48.720;9.166;2023-08-06T11:40:05;1.73;;;0.70;;
3847;SDS011;1939;48.720;9.166;2023-08-06T11:42:33;0.90;;;0.57;;
3847;SDS011;1939;48.720;9.166;2023-08-06T11:44:58;0.90;;;0.47;;
3847;SDS011;1939;48.720;9.166;2023-08-06T11:47:23;1.00;;;0.70;;
3847;SDS011;1939;48.720;9.166;2023-08-06T11:49:48;1.10;;;0.70;;
3847;SDS011;1939;48.720;9.166;2023-08-06T11:52:17;2.37;;;0.60;;
3847;SDS011;1939;48.720;9.166;2023-08-06T11:54:44;1.03;;;0.80;;
3847;SDS011;1939;48.720;9.166;2023-08-06T11:57:10;2.40;;;0.50;;
3847;SDS011;1939;48.720;9.166;2023-08-06T11:59:36;2.33;;;0.53;;
3847;SDS011;1939;48.720;9.166;2023-08-06T12:02:05;1.73;;;0.70;;
3847;SDS011;1939;48.720;9.166;2023-08-06T12:04:50;3.00;;;0.70;;
3847;SDS011;1939;48.720;9.166;2023-08-06T12:07:16;1.40;;;0.73;;
3847;SDS011;1939;48.720;9.166;2023-08-06T12:09:41;2.10;;;0.87;;
3847;SDS011;1939;48.720;9.166;2023-08-06T12:12:06;4.17;;;1.20;;
3847;SDS011;1939;48.720;9.166;2023-08-06T12:14:31;16.03;;;0.80;;
3847;SDS011;1939;48.720;9.166;2023-08-06T12:16:56;2.47;;;1.20;;
3847;SDS011;1939;48.720;9.166;2023-08-06T12:19:22;4.40;;;0.70;;
3847;SDS011;1939;48.720;9.166;2023-08-06T12:21:48;1.07;;;0.70;;
3847;SDS011;1939;48.720;9.166;2023-08-06T12:24:13;0.93;;;0.70;;
3847;SDS011;1939;48.720;9.166;2023-08-06T12:26:38;2.03;;;1.00;;
3847;SDS011;1939;48.720;9.166;2023-08-06T12:29:05;1.07;;;0.80;;
3847;SDS011;1939;48.720;9.166;2023-08-06T12:31:30;1.83;;;0.80;;
3847;SDS011;1939;48.720;9.166;2023-08-06T12:36:58;0.90;;;0.53;;
3847;SDS011;1939;48.720;9.166;2023-08-06T12:39:23;0.97;;;0.90;;
3847;SDS011;1939;48.720;9.166;2023-08-06T12:41:49;2.33;;;0.83;;
3847;SDS011;1939;48.720;9.166;2023-08-06T12:44:14;0.83;;;0.83;;
3847;SDS011;1939;48.720;9.166;2023-08-06T12:46:39;0.80;;;0.50;;
3847;SDS011;1939;48.720;9.166;2023-08-06T12:49:04;2.47;;;1.20;;
3847;SDS011;1939;48.720;9.166;2023-08-06T12:51:30;5.63;;;0.83;;
3847;SDS011;1939;48.720;9.166;2023-08-06T12:53:56;0.60;;;0.30;;
3847;SDS011;1939;48.720;9.166;2023-08-06T12:56:21;2.00;;;0.77;;
3847;SDS011;1939;48.720;9.166;2023-08-06T12:58:46;1.00;;;0.60;;
3847;SDS011;1939;48.720;9.166;2023-08-06T13:01:11;1.50;;;0.70;;
3847;SDS011;1939;48.720;9.166;2023-08-06T13:03:37;0.80;;;0.70;;
3847;SDS011;1939;48.720;9.166;2023-08-06T13:06:02;1.13;;;0.70;;
3847;SDS011;1939;48.720;9.166;2023-08-06T13:08:27;0.90;;;0.70;;
3847;SDS011;1939;48.720;9.166;2023-08-06T13:10:52;1.27;;;0.80;;
3847;SDS011;1939;48.720;9.166;2023-08-06T13:13:18;1.47;;;0.80;;
3847;SDS011;1939;48.720;9.166;2023-08-06T13:18:20;1.13;;;1.00;;
3847;SDS011;1939;48.720;9.166;2023-08-06T13:20:45;1.47;;;1.23;;
3847;SDS011;1939;48.720;9.166;2023-08-06T13:23:12;0.90;;;0.80;;
3847;SDS011;1939;48.720;9.166;2023-08-06T13:25:40;1.03;;;0.80;;
3847;SDS011;1939;48.720;9.166;2023-08-06T13:28:05;1.67;;;1.00;;
3847;SDS011;1939;48.720;9.166;2023-08-06T13:30:31;0.73;;;0.63;;
3847;SDS011;1939;48.720;9.166;2023-08-06T13:32:56;1.33;;;0.80;;
3847;SDS011;1939;48.720;9.166;2023-08-06T13:35:22;1.77;;;0.60;;
3847;SDS011;1939;48.720;9.166;2023-08-06T13:37:47;1.70;;;0.70;;
3847;SDS011;1939;48.720;9.166;2023-08-06T13:40:13;2.00;;;1.00;;
3847;SDS011;1939;48.720;9.166;2023-08-06T13:42:38;1.40;;;1.10;;
3847;SDS011;1939;48.720;9.166;2023-08-06T13:45:04;1.10;;;0.50;;
3847;SDS011;1939;48.720;9.166;2023-08-06T13:47:29;2.00;;;0.97;;
3847;SDS011;1939;48.720;9.166;2023-08-06T13:49:55;2.50;;;0.77;;
3847;SDS011;1939;48.720;9.166;2023-08-06T13:52:20;1.00;;;0.70;;
3847;SDS011;1939;48.720;9.166;2023-08-06T13:54:46;1.03;;;0.57;;
3847;SDS011;1939;48.720;9.166;2023-08-06T13:57:11;0.90;;;0.63;;
3847;SDS011;1939;48.720;9.166;2023-08-06T13:59:36;1.17;;;0.50;;
3847;SDS011;1939;48.720;9.166;2023-08-06T14:02:01;1.87;;;0.50;;
3847;SDS011;1939;48.720;9.166;2023-08-06T14:04:27;2.80;;;0.67;;
3847;SDS011;1939;48.720;9.166;2023-08-06T14:06:52;1.40;;;0.80;;
3847;SDS011;1939;48.720;9.166;2023-08-06T14:09:17;1.30;;;0.90;;
3847;SDS011;1939;48.720;9.166;2023-08-06T14:11:43;1.20;;;0.53;;
3847;SDS011;1939;48.720;9.166;2023-08-06T14:14:09;1.40;;;0.70;;
3847;SDS011;1939;48.720;9.166;2023-08-06T14:16:34;1.30;;;0.53;;
3847;SDS011;1939;48.720;9.166;2023-08-06T14:18:59;1.13;;;0.63;;
3847;SDS011;1939;48.720;9.166;2023-08-06T14:21:24;2.07;;;0.83;;
3847;SDS011;1939;48.720;9.166;2023-08-06T14:23:50;1.37;;;1.27;;
3847;SDS011;1939;48.720;9.166;2023-08-06T14:26:15;1.17;;;0.60;;
3847;SDS011;1939;48.720;9.166;2023-08-06T14:28:40;0.70;;;0.60;;
3847;SDS011;1939;48.720;9.166;2023-08-06T14:31:05;1.30;;;0.73;;
3847;SDS011;1939;48.720;9.166;2023-08-06T14:33:31;1.40;;;0.53;;
3847;SDS011;1939;48.720;9.166;2023-08-06T14:35:57;1.33;;;0.80;;
3847;SDS011;1939;48.720;9.166;2023-08-06T14:38:22;1.20;;;0.70;;
3847;SDS011;1939;48.720;9.166;2023-08-06T14:40:47;3.23;;;0.70;;
3847;SDS011;1939;48.720;9.166;2023-08-06T14:43:12;0.80;;;0.60;;
3847;SDS011;1939;48.720;9.166;2023-08-06T14:45:38;1.10;;;0.90;;
3847;SDS011;1939;48.720;9.166;2023-08-06T14:48:04;5.77;;;1.03;;
3847;SDS011;1939;48.720;9.166;2023-08-06T14:50:29;1.17;;;0.83;;
3847;SDS011;1939;48.720;9.166;2023-08-06T14:52:54;1.17;;;1.07;;
3847;SDS011;1939;48.720;9.166;2023-08-06T14:55:24;2.07;;;1.43;;
3847;SDS011;1939;48.720;9.166;2023-08-06T14:57:49;0.90;;;0.60;;
3847;SDS011;1939;48.720;9.166;2023-08-06T15:00:14;1.20;;;1.10;;
3847;SDS011;1939;48.720;9.166;2023-08-06T15:02:39;3.20;;;1.00;;
3847;SDS011;1939;48.720;9.166;2023-08-06T15:05:05;1.17;;;1.07;;
3847;SDS011;1939;48.720;9.166;2023-08-06T15:07:30;1.20;;;0.83;;
3847;SDS011;1939;48.720;9.166;2023-08-06T15:09:58;1.30;;;0.80;;
3847;SDS011;1939;48.720;9.166;2023-08-06T15:12:23;2.00;;;0.70;;
3847;SDS011;1939;48.720;9.166;2023-08-06T15:14:48;0.87;;;0.63;;
3847;SDS011;1939;48.720;9.166;2023-08-06T15:17:14;1.67;;;0.60;;
3847;SDS011;1939;48.720;9.166;2023-08-06T15:19:39;0.70;;;0.50;;